Snav Lazio — IBUH — position and weather

sailwx.info

Track history (hours):
 
Tides and Currents Weather Stations Pressure Air Temp Water Temp Dewpoint Dewpoint Depression Visibility Wind Speed Wind Dir Waves Ship Positions

Snav Lazio

Last reported at 2015-Apr-19 07:32 UTC. Time now 2015-Apr-19 07:59 UTC.
Position N 38°08' E 013°22'.

Length 162 m; draft 6 m.

Type: Passenger vessel. MMSI: 247163100.

Date/timePositionNaut miles runAvg speedWind from/ knotsBaromVisibWave heightAir tempDewpointWater temp
2015-Apr-19 07:32N 38°08' E 013°22'0 0.0
2015-Apr-19 06:32N 38°08' E 013°22'0 0.0
2015-Apr-19 05:32N 38°08' E 013°22'0 0.0
2015-Apr-19 04:32N 38°08' E 013°22'7 7.3
2015-Apr-19 03:34N 38°14' E 013°26'1818.0
2015-Apr-19 02:34N 38°32' E 013°31'1818.3
2015-Apr-19 01:34N 38°50' E 013°36'1818.3
2015-Apr-19 00:34N 39°08' E 013°41'1918.5
2015-Apr-18 23:34N 39°26' E 013°46'1818.4
2015-Apr-18 22:34N 39°44' E 013°51'3417.2
2015-Apr-18 20:34N 40°17' E 014°03'1717.2
2015-Apr-18 19:34N 40°34' E 014°08'1716.6
2015-Apr-18 18:33N 40°49' E 014°17'1 0.2
2015-Apr-18 10:33N 40°50' E 014°16'3 0.5
2015-Apr-18 03:33N 40°47' E 014°16'1818.4
2015-Apr-18 02:33N 40°30' E 014°07'1918.3
2015-Apr-18 01:33N 40°12' E 014°02'9018.1
2015-Apr-17 20:33N 38°44' E 013°36'1817.6
2015-Apr-17 19:33N 38°27' E 013°31'1716.7
2015-Apr-17 18:33N 38°11' E 013°26'4 4.4
2015-Apr-17 17:33N 38°08' E 013°22'0 0.0
2015-Apr-17 16:34N 38°08' E 013°22'0 0.0
2015-Apr-17 15:34N 38°08' E 013°22'0 0.0
2015-Apr-17 14:34N 38°08' E 013°22'0 0.0
2015-Apr-17 13:34N 38°08' E 013°22'0 0.0
2015-Apr-17 12:34N 38°08' E 013°22'0 0.0
2015-Apr-17 11:33N 38°08' E 013°22'0 0.0
2015-Apr-17 10:34N 38°08' E 013°22'0 0.0
2015-Apr-17 09:34N 38°08' E 013°22'0 0.0
2015-Apr-17 08:34N 38°08' E 013°22'0 0.0
2015-Apr-17 07:33N 38°08' E 013°22'0 0.0
2015-Apr-17 06:34N 38°08' E 013°22'0 0.0
2015-Apr-17 05:33N 38°08' E 013°22'3 3.0
2015-Apr-17 04:33N 38°10' E 013°25'1616.5
2015-Apr-17 03:33N 38°26' E 013°30'1313.1
2015-Apr-17 02:33N 38°39' E 013°35'1212.1
2015-Apr-17 01:33N 38°50' E 013°37'1818.2
2015-Apr-17 00:33N 39°08' E 013°42'1818.3
2015-Apr-16 23:33N 39°26' E 013°47'1818.2
2015-Apr-16 22:33N 39°43' E 013°53'1818.1
2015-Apr-16 21:33N 40°01' E 013°57'1818.2
2015-Apr-16 20:34N 40°19' E 014°03'1717.1
2015-Apr-16 19:33N 40°35' E 014°09'1615.5
2015-Apr-16 18:33N 40°50' E 014°17'1 0.8
2015-Apr-16 17:30N 40°50' E 014°16'0 0.0
2015-Apr-16 16:33N 40°50' E 014°16'0 0.0
2015-Apr-16 15:33N 40°50' E 014°16'0 0.0
2015-Apr-16 14:30N 40°50' E 014°16'0 0.0
2015-Apr-16 13:21N 40°50' E 014°16'0 0.0
2015-Apr-16 04:06N 40°50' E 014°16'4 6.8
2015-Apr-16 03:33N 40°47' E 014°15'1818.1
2015-Apr-16 02:33N 40°30' E 014°07'3818.8
2015-Apr-16 00:31N 39°53' E 013°56'5418.1
2015-Apr-15 21:31N 38°60' E 013°40'1717.2
2015-Apr-15 20:32N 38°43' E 013°36'1717.2
2015-Apr-15 19:32N 38°26' E 013°31'1717.0
2015-Apr-15 18:33N 38°10' E 013°26'4 3.6
2015-Apr-15 17:30N 38°08' E 013°22'0 0.0
2015-Apr-15 16:34N 38°08' E 013°22'0 0.0
2015-Apr-15 15:33N 38°08' E 013°22'0 0.0
2015-Apr-15 14:30N 38°08' E 013°22'0 0.0
2015-Apr-15 13:21N 38°08' E 013°22'0 0.0
2015-Apr-15 12:33N 38°08' E 013°22'0 0.0
2015-Apr-15 11:24N 38°08' E 013°22'0 0.0
2015-Apr-15 10:21N 38°08' E 013°22'2 2.1
2015-Apr-15 09:33N 38°08' E 013°24'1818.0
2015-Apr-15 08:33N 38°26' E 013°29'1818.5
2015-Apr-15 07:33N 38°44' E 013°35'9318.4
2015-Apr-15 02:30N 40°15' E 014°00'1718.3
2015-Apr-15 01:33N 40°31' E 014°07'1818.2
2015-Apr-15 00:33N 40°48' E 014°16'2 0.1
2015-Apr-14 05:25N 40°50' E 014°15'0 0.0
2015-Apr-14 04:09N 40°50' E 014°15'5 8.8
2015-Apr-14 03:33N 40°45' E 014°16'1818.3
2015-Apr-14 02:33N 40°28' E 014°06'2118.3
2015-Apr-14 01:25N 40°08' E 014°00'9217.8
2015-Apr-13 20:17N 38°39' E 013°34'1217.1
2015-Apr-13 19:33N 38°27' E 013°31'1716.9
2015-Apr-13 18:33N 38°10' E 013°26'4 3.8
2015-Apr-13 17:32N 38°08' E 013°22'0 0.0
2015-Apr-13 16:32N 38°08' E 013°22'0 0.0
2015-Apr-13 15:32N 38°08' E 013°22'0 0.0
2015-Apr-13 14:29N 38°08' E 013°22'0 0.0
2015-Apr-13 13:32N 38°08' E 013°22'0 0.0
2015-Apr-13 12:32N 38°08' E 013°22'0 0.0
2015-Apr-13 11:32N 38°08' E 013°22'0 0.0
2015-Apr-13 10:32N 38°08' E 013°22'0 0.0
2015-Apr-13 09:32N 38°08' E 013°22'0 0.0
2015-Apr-13 08:32N 38°08' E 013°22'0 0.0
2015-Apr-13 07:32N 38°08' E 013°22'0 0.0
2015-Apr-13 06:32N 38°08' E 013°22'0 0.0
2015-Apr-13 05:32N 38°08' E 013°22'0 0.0
2015-Apr-13 04:32N 38°08' E 013°22'6 6.5
2015-Apr-13 03:33N 38°14' E 013°26'1918.6
2015-Apr-13 02:33N 38°32' E 013°32'2018.5
2015-Apr-13 01:28N 38°51' E 013°37'1717.5
2015-Apr-13 00:31N 39°07' E 013°42'1717.5
2015-Apr-12 23:32N 39°25' E 013°47'1717.5
2015-Apr-12 22:32N 39°42' E 013°51'1717.1
2015-Apr-12 21:31N 39°59' E 013°57'1617.2
2015-Apr-12 20:33N 40°15' E 014°01'1717.4
2015-Apr-12 19:33N 40°31' E 014°07'1817.3
2015-Apr-12 18:32N 40°48' E 014°15'3 2.6
2015-Apr-12 17:32N 40°50' E 014°15'0 0.0
2015-Apr-12 16:32N 40°50' E 014°15'0 0.0
2015-Apr-12 13:08N 40°50' E 014°15'0 0.0
2015-Apr-12 05:14N 40°50' E 014°15'0 0.0
2015-Apr-12 04:30N 40°50' E 014°15'9 9.4
2015-Apr-12 03:33N 40°42' E 014°13'1818.1
2015-Apr-12 02:33N 40°24' E 014°05'6017.7
2015-Apr-11 23:10N 39°26' E 013°48'4717.4
2015-Apr-11 20:26N 38°40' E 013°35'1517.4
2015-Apr-11 19:33N 38°25' E 013°30'1717.1
2015-Apr-11 18:33N 38°08' E 013°25'2 2.1
2015-Apr-11 17:32N 38°08' E 013°22'0 0.0
2015-Apr-11 16:32N 38°08' E 013°22'0 0.0
2015-Apr-11 15:32N 38°08' E 013°22'0 0.0
2015-Apr-11 14:32N 38°08' E 013°22'0 0.0
2015-Apr-11 13:32N 38°08' E 013°22'0 0.0
2015-Apr-11 12:32N 38°08' E 013°22'0 0.0
2015-Apr-11 11:32N 38°08' E 013°22'0 0.0
2015-Apr-11 10:32N 38°08' E 013°22'0 0.0
2015-Apr-11 09:32N 38°08' E 013°22'0 0.0
2015-Apr-11 08:32N 38°08' E 013°22'0 0.0
2015-Apr-11 07:32N 38°08' E 013°22'0 0.0
2015-Apr-11 06:32N 38°08' E 013°22'0 0.0
2015-Apr-11 05:32N 38°08' E 013°22'0 0.0
2015-Apr-11 04:32N 38°08' E 013°22'6 6.5
2015-Apr-11 03:33N 38°14' E 013°26'1918.5
2015-Apr-11 02:33N 38°32' E 013°31'1817.9
2015-Apr-11 01:33N 38°49' E 013°36'1818.4
2015-Apr-11 00:33N 39°07' E 013°40'2018.6
2015-Apr-10 23:30N 39°26' E 013°46'2318.2
2015-Apr-10 22:13N 39°49' E 013°54'1216.7
2015-Apr-10 21:29N 40°01' E 013°57'1817.1
2015-Apr-10 20:25N 40°18' E 014°03'1517.3
2015-Apr-10 19:33N 40°33' E 014°07'1716.9
2015-Apr-10 18:33N 40°49' E 014°16'2 0.1
2015-Apr-10 04:12N 40°50' E 014°15'5 8.3
2015-Apr-10 03:34N 40°45' E 014°15'1716.6
2015-Apr-10 02:33N 40°30' E 014°06'1717.3
2015-Apr-10 01:34N 40°13' E 014°02'9717.8
2015-Apr-09 20:09N 38°39' E 013°35'1118.6
2015-Apr-09 19:33N 38°28' E 013°31'1818.5
2015-Apr-09 18:34N 38°10' E 013°26'4 3.7
2015-Apr-09 17:33N 38°08' E 013°22'0 0.0
2015-Apr-09 16:33N 38°08' E 013°22'0 0.0
2015-Apr-09 15:33N 38°08' E 013°22'0 0.0
2015-Apr-09 14:33N 38°08' E 013°22'0 0.0
2015-Apr-09 13:33N 38°08' E 013°22'0 0.0
2015-Apr-09 12:33N 38°08' E 013°22'0 0.0
2015-Apr-09 11:33N 38°08' E 013°22'0 0.0
2015-Apr-09 10:33N 38°08' E 013°22'0 0.0
2015-Apr-09 09:33N 38°08' E 013°22'0 0.0
2015-Apr-09 08:33N 38°08' E 013°22'0 0.0
2015-Apr-09 07:33N 38°08' E 013°22'  
Track history (hours):
 
Tides and Currents Weather Stations Pressure Air Temp Water Temp Dewpoint Dewpoint Depression Visibility Wind Speed Wind Dir Waves Ship Positions

Snav Lazio

Last reported at 2015-Apr-19 07:32 UTC. Time now 2015-Apr-19 07:59 UTC.
Position N 38°08' E 013°22'.

Length 162 m; draft 6 m.

Type: Passenger vessel. MMSI: 247163100.

Date/timePositionNaut miles runAvg speedWind from/ knotsBaromVisibWave heightAir tempDewpointWater temp
2015-Apr-19 07:32N 38°08' E 013°22'0 0.0
2015-Apr-19 06:32N 38°08' E 013°22'0 0.0
2015-Apr-19 05:32N 38°08' E 013°22'0 0.0
2015-Apr-19 04:32N 38°08' E 013°22'7 7.3
2015-Apr-19 03:34N 38°14' E 013°26'1818.0
2015-Apr-19 02:34N 38°32' E 013°31'1818.3
2015-Apr-19 01:34N 38°50' E 013°36'1818.3
2015-Apr-19 00:34N 39°08' E 013°41'1918.5
2015-Apr-18 23:34N 39°26' E 013°46'1818.4
2015-Apr-18 22:34N 39°44' E 013°51'3417.2
2015-Apr-18 20:34N 40°17' E 014°03'1717.2
2015-Apr-18 19:34N 40°34' E 014°08'1716.6
2015-Apr-18 18:33N 40°49' E 014°17'1 0.2
2015-Apr-18 10:33N 40°50' E 014°16'3 0.5
2015-Apr-18 03:33N 40°47' E 014°16'1818.4
2015-Apr-18 02:33N 40°30' E 014°07'1918.3
2015-Apr-18 01:33N 40°12' E 014°02'9018.1
2015-Apr-17 20:33N 38°44' E 013°36'1817.6
2015-Apr-17 19:33N 38°27' E 013°31'1716.7
2015-Apr-17 18:33N 38°11' E 013°26'4 4.4
2015-Apr-17 17:33N 38°08' E 013°22'0 0.0
2015-Apr-17 16:34N 38°08' E 013°22'0 0.0
2015-Apr-17 15:34N 38°08' E 013°22'0 0.0
2015-Apr-17 14:34N 38°08' E 013°22'0 0.0
2015-Apr-17 13:34N 38°08' E 013°22'0 0.0
2015-Apr-17 12:34N 38°08' E 013°22'0 0.0
2015-Apr-17 11:33N 38°08' E 013°22'0 0.0
2015-Apr-17 10:34N 38°08' E 013°22'0 0.0
2015-Apr-17 09:34N 38°08' E 013°22'0 0.0
2015-Apr-17 08:34N 38°08' E 013°22'0 0.0
2015-Apr-17 07:33N 38°08' E 013°22'0 0.0
2015-Apr-17 06:34N 38°08' E 013°22'0 0.0
2015-Apr-17 05:33N 38°08' E 013°22'3 3.0
2015-Apr-17 04:33N 38°10' E 013°25'1616.5
2015-Apr-17 03:33N 38°26' E 013°30'1313.1
2015-Apr-17 02:33N 38°39' E 013°35'1212.1
2015-Apr-17 01:33N 38°50' E 013°37'1818.2
2015-Apr-17 00:33N 39°08' E 013°42'1818.3
2015-Apr-16 23:33N 39°26' E 013°47'1818.2
2015-Apr-16 22:33N 39°43' E 013°53'1818.1
2015-Apr-16 21:33N 40°01' E 013°57'1818.2
2015-Apr-16 20:34N 40°19' E 014°03'1717.1
2015-Apr-16 19:33N 40°35' E 014°09'1615.5
2015-Apr-16 18:33N 40°50' E 014°17'1 0.8
2015-Apr-16 17:30N 40°50' E 014°16'0 0.0
2015-Apr-16 16:33N 40°50' E 014°16'0 0.0
2015-Apr-16 15:33N 40°50' E 014°16'0 0.0
2015-Apr-16 14:30N 40°50' E 014°16'0 0.0
2015-Apr-16 13:21N 40°50' E 014°16'0 0.0
2015-Apr-16 04:06N 40°50' E 014°16'4 6.8
2015-Apr-16 03:33N 40°47' E 014°15'1818.1
2015-Apr-16 02:33N 40°30' E 014°07'3818.8
2015-Apr-16 00:31N 39°53' E 013°56'5418.1
2015-Apr-15 21:31N 38°60' E 013°40'1717.2
2015-Apr-15 20:32N 38°43' E 013°36'1717.2
2015-Apr-15 19:32N 38°26' E 013°31'1717.0
2015-Apr-15 18:33N 38°10' E 013°26'4 3.6
2015-Apr-15 17:30N 38°08' E 013°22'0 0.0
2015-Apr-15 16:34N 38°08' E 013°22'0 0.0
2015-Apr-15 15:33N 38°08' E 013°22'0 0.0
2015-Apr-15 14:30N 38°08' E 013°22'0 0.0
2015-Apr-15 13:21N 38°08' E 013°22'0 0.0
2015-Apr-15 12:33N 38°08' E 013°22'0 0.0
2015-Apr-15 11:24N 38°08' E 013°22'0 0.0
2015-Apr-15 10:21N 38°08' E 013°22'2 2.1
2015-Apr-15 09:33N 38°08' E 013°24'1818.0
2015-Apr-15 08:33N 38°26' E 013°29'1818.5
2015-Apr-15 07:33N 38°44' E 013°35'9318.4
2015-Apr-15 02:30N 40°15' E 014°00'1718.3
2015-Apr-15 01:33N 40°31' E 014°07'1818.2
2015-Apr-15 00:33N 40°48' E 014°16'2 0.1
2015-Apr-14 05:25N 40°50' E 014°15'0 0.0
2015-Apr-14 04:09N 40°50' E 014°15'5 8.8
2015-Apr-14 03:33N 40°45' E 014°16'1818.3
2015-Apr-14 02:33N 40°28' E 014°06'2118.3
2015-Apr-14 01:25N 40°08' E 014°00'9217.8
2015-Apr-13 20:17N 38°39' E 013°34'1217.1
2015-Apr-13 19:33N 38°27' E 013°31'1716.9
2015-Apr-13 18:33N 38°10' E 013°26'4 3.8
2015-Apr-13 17:32N 38°08' E 013°22'0 0.0
2015-Apr-13 16:32N 38°08' E 013°22'0 0.0
2015-Apr-13 15:32N 38°08' E 013°22'0 0.0
2015-Apr-13 14:29N 38°08' E 013°22'0 0.0
2015-Apr-13 13:32N 38°08' E 013°22'0 0.0
2015-Apr-13 12:32N 38°08' E 013°22'0 0.0
2015-Apr-13 11:32N 38°08' E 013°22'0 0.0
2015-Apr-13 10:32N 38°08' E 013°22'0 0.0
2015-Apr-13 09:32N 38°08' E 013°22'0 0.0
2015-Apr-13 08:32N 38°08' E 013°22'0 0.0
2015-Apr-13 07:32N 38°08' E 013°22'0 0.0
2015-Apr-13 06:32N 38°08' E 013°22'0 0.0
2015-Apr-13 05:32N 38°08' E 013°22'0 0.0
2015-Apr-13 04:32N 38°08' E 013°22'6 6.5
2015-Apr-13 03:33N 38°14' E 013°26'1918.6
2015-Apr-13 02:33N 38°32' E 013°32'2018.5
2015-Apr-13 01:28N 38°51' E 013°37'1717.5
2015-Apr-13 00:31N 39°07' E 013°42'1717.5
2015-Apr-12 23:32N 39°25' E 013°47'1717.5
2015-Apr-12 22:32N 39°42' E 013°51'1717.1
2015-Apr-12 21:31N 39°59' E 013°57'1617.2
2015-Apr-12 20:33N 40°15' E 014°01'1717.4
2015-Apr-12 19:33N 40°31' E 014°07'1817.3
2015-Apr-12 18:32N 40°48' E 014°15'3 2.6
2015-Apr-12 17:32N 40°50' E 014°15'0 0.0
2015-Apr-12 16:32N 40°50' E 014°15'0 0.0
2015-Apr-12 13:08N 40°50' E 014°15'0 0.0
2015-Apr-12 05:14N 40°50' E 014°15'0 0.0
2015-Apr-12 04:30N 40°50' E 014°15'9 9.4
2015-Apr-12 03:33N 40°42' E 014°13'1818.1
2015-Apr-12 02:33N 40°24' E 014°05'6017.7
2015-Apr-11 23:10N 39°26' E 013°48'4717.4
2015-Apr-11 20:26N 38°40' E 013°35'1517.4
2015-Apr-11 19:33N 38°25' E 013°30'1717.1
2015-Apr-11 18:33N 38°08' E 013°25'2 2.1
2015-Apr-11 17:32N 38°08' E 013°22'0 0.0
2015-Apr-11 16:32N 38°08' E 013°22'0 0.0
2015-Apr-11 15:32N 38°08' E 013°22'0 0.0
2015-Apr-11 14:32N 38°08' E 013°22'0 0.0
2015-Apr-11 13:32N 38°08' E 013°22'0 0.0
2015-Apr-11 12:32N 38°08' E 013°22'0 0.0
2015-Apr-11 11:32N 38°08' E 013°22'0 0.0
2015-Apr-11 10:32N 38°08' E 013°22'0 0.0
2015-Apr-11 09:32N 38°08' E 013°22'0 0.0
2015-Apr-11 08:32N 38°08' E 013°22'0 0.0
2015-Apr-11 07:32N 38°08' E 013°22'0 0.0
2015-Apr-11 06:32N 38°08' E 013°22'0 0.0
2015-Apr-11 05:32N 38°08' E 013°22'0 0.0
2015-Apr-11 04:32N 38°08' E 013°22'6 6.5
2015-Apr-11 03:33N 38°14' E 013°26'1918.5
2015-Apr-11 02:33N 38°32' E 013°31'1817.9
2015-Apr-11 01:33N 38°49' E 013°36'1818.4
2015-Apr-11 00:33N 39°07' E 013°40'2018.6
2015-Apr-10 23:30N 39°26' E 013°46'2318.2
2015-Apr-10 22:13N 39°49' E 013°54'1216.7
2015-Apr-10 21:29N 40°01' E 013°57'1817.1
2015-Apr-10 20:25N 40°18' E 014°03'1517.3
2015-Apr-10 19:33N 40°33' E 014°07'1716.9
2015-Apr-10 18:33N 40°49' E 014°16'2 0.1
2015-Apr-10 04:12N 40°50' E 014°15'5 8.3
2015-Apr-10 03:34N 40°45' E 014°15'1716.6
2015-Apr-10 02:33N 40°30' E 014°06'1717.3
2015-Apr-10 01:34N 40°13' E 014°02'9717.8
2015-Apr-09 20:09N 38°39' E 013°35'1118.6
2015-Apr-09 19:33N 38°28' E 013°31'1818.5
2015-Apr-09 18:34N 38°10' E 013°26'4 3.7
2015-Apr-09 17:33N 38°08' E 013°22'0 0.0
2015-Apr-09 16:33N 38°08' E 013°22'0 0.0
2015-Apr-09 15:33N 38°08' E 013°22'0 0.0
2015-Apr-09 14:33N 38°08' E 013°22'0 0.0
2015-Apr-09 13:33N 38°08' E 013°22'0 0.0
2015-Apr-09 12:33N 38°08' E 013°22'0 0.0
2015-Apr-09 11:33N 38°08' E 013°22'0 0.0
2015-Apr-09 10:33N 38°08' E 013°22'0 0.0
2015-Apr-09 09:33N 38°08' E 013°22'0 0.0
2015-Apr-09 08:33N 38°08' E 013°22'0 0.0
2015-Apr-09 07:33N 38°08' E 013°22'  

Dump ship's entire track history